sensor_id;sensor_type;location;lat;lon;timestamp;P1;durP1;ratioP1;P2;durP2;ratioP2
25091;SDS011;13082;52.374;4.946;2023-02-28T00:01:13;3.60;;;1.70;;
25091;SDS011;13082;52.374;4.946;2023-02-28T00:03:39;3.47;;;2.30;;
25091;SDS011;13082;52.374;4.946;2023-02-28T00:06:06;4.23;;;1.63;;
25091;SDS011;13082;52.374;4.946;2023-02-28T00:08:37;5.33;;;2.03;;
25091;SDS011;13082;52.374;4.946;2023-02-28T00:11:06;4.63;;;2.60;;
25091;SDS011;13082;52.374;4.946;2023-02-28T00:13:37;2.47;;;1.60;;
25091;SDS011;13082;52.374;4.946;2023-02-28T00:16:06;2.77;;;1.63;;
25091;SDS011;13082;52.374;4.946;2023-02-28T00:18:34;4.50;;;1.83;;
25091;SDS011;13082;52.374;4.946;2023-02-28T00:21:00;1.83;;;1.30;;
25091;SDS011;13082;52.374;4.946;2023-02-28T00:23:26;2.50;;;1.80;;
25091;SDS011;13082;52.374;4.946;2023-02-28T00:25:52;5.83;;;2.00;;
25091;SDS011;13082;52.374;4.946;2023-02-28T00:28:18;3.27;;;1.53;;
25091;SDS011;13082;52.374;4.946;2023-02-28T00:30:44;3.30;;;2.00;;
25091;SDS011;13082;52.374;4.946;2023-02-28T00:33:10;4.33;;;1.87;;
25091;SDS011;13082;52.374;4.946;2023-02-28T00:35:36;2.10;;;1.57;;
25091;SDS011;13082;52.374;4.946;2023-02-28T00:38:01;1.70;;;1.60;;
25091;SDS011;13082;52.374;4.946;2023-02-28T00:40:27;6.00;;;1.50;;
25091;SDS011;13082;52.374;4.946;2023-02-28T00:42:53;4.77;;;1.77;;
25091;SDS011;13082;52.374;4.946;2023-02-28T00:45:19;5.57;;;2.07;;
25091;SDS011;13082;52.374;4.946;2023-02-28T00:47:45;4.73;;;2.53;;
25091;SDS011;13082;52.374;4.946;2023-02-28T00:50:11;2.37;;;1.93;;
25091;SDS011;13082;52.374;4.946;2023-02-28T00:52:37;2.63;;;1.80;;
25091;SDS011;13082;52.374;4.946;2023-02-28T00:55:03;6.87;;;2.10;;
25091;SDS011;13082;52.374;4.946;2023-02-28T00:57:29;3.50;;;2.00;;
25091;SDS011;13082;52.374;4.946;2023-02-28T00:59:54;4.27;;;2.10;;
25091;SDS011;13082;52.374;4.946;2023-02-28T01:02:21;2.63;;;2.07;;
25091;SDS011;13082;52.374;4.946;2023-02-28T01:04:47;6.47;;;1.80;;
25091;SDS011;13082;52.374;4.946;2023-02-28T01:07:13;5.33;;;2.13;;
25091;SDS011;13082;52.374;4.946;2023-02-28T01:09:39;7.63;;;2.60;;
25091;SDS011;13082;52.374;4.946;2023-02-28T01:12:06;4.33;;;1.87;;
25091;SDS011;13082;52.374;4.946;2023-02-28T01:14:33;2.57;;;2.00;;
25091;SDS011;13082;52.374;4.946;2023-02-28T01:16:59;2.73;;;1.87;;
25091;SDS011;13082;52.374;4.946;2023-02-28T01:19:25;5.70;;;2.30;;
25091;SDS011;13082;52.374;4.946;2023-02-28T01:21:50;2.57;;;2.10;;
25091;SDS011;13082;52.374;4.946;2023-02-28T01:24:16;3.87;;;2.47;;
25091;SDS011;13082;52.374;4.946;2023-02-28T01:26:42;2.50;;;2.30;;
25091;SDS011;13082;52.374;4.946;2023-02-28T01:29:07;4.30;;;1.93;;
25091;SDS011;13082;52.374;4.946;2023-02-28T01:31:33;2.63;;;2.13;;
25091;SDS011;13082;52.374;4.946;2023-02-28T01:33:59;2.70;;;2.03;;
25091;SDS011;13082;52.374;4.946;2023-02-28T01:36:24;2.53;;;1.83;;
25091;SDS011;13082;52.374;4.946;2023-02-28T01:38:50;5.13;;;2.17;;
25091;SDS011;13082;52.374;4.946;2023-02-28T01:46:12;3.50;;;2.00;;
25091;SDS011;13082;52.374;4.946;2023-02-28T01:48:49;2.87;;;2.00;;
25091;SDS011;13082;52.374;4.946;2023-02-28T01:51:38;4.73;;;1.80;;
25091;SDS011;13082;52.374;4.946;2023-02-28T01:54:25;2.17;;;2.00;;
25091;SDS011;13082;52.374;4.946;2023-02-28T01:57:01;5.37;;;2.00;;
25091;SDS011;13082;52.374;4.946;2023-02-28T01:59:35;5.13;;;2.20;;
25091;SDS011;13082;52.374;4.946;2023-02-28T02:02:14;10.67;;;2.40;;
25091;SDS011;13082;52.374;4.946;2023-02-28T02:04:46;3.40;;;2.47;;
25091;SDS011;13082;52.374;4.946;2023-02-28T02:07:15;3.07;;;1.73;;
25091;SDS011;13082;52.374;4.946;2023-02-28T02:09:41;3.83;;;2.47;;
25091;SDS011;13082;52.374;4.946;2023-02-28T02:12:11;5.47;;;2.53;;
25091;SDS011;13082;52.374;4.946;2023-02-28T02:17:52;3.13;;;2.27;;
25091;SDS011;13082;52.374;4.946;2023-02-28T02:20:28;5.37;;;2.63;;
25091;SDS011;13082;52.374;4.946;2023-02-28T02:39:30;5.60;;;2.30;;
25091;SDS011;13082;52.374;4.946;2023-02-28T02:42:05;4.37;;;2.20;;
25091;SDS011;13082;52.374;4.946;2023-02-28T02:44:52;5.17;;;2.37;;
25091;SDS011;13082;52.374;4.946;2023-02-28T02:47:26;5.53;;;2.60;;
25091;SDS011;13082;52.374;4.946;2023-02-28T02:49:56;4.17;;;2.40;;
25091;SDS011;13082;52.374;4.946;2023-02-28T02:52:31;5.03;;;2.40;;
25091;SDS011;13082;52.374;4.946;2023-02-28T02:55:02;5.00;;;3.57;;
25091;SDS011;13082;52.374;4.946;2023-02-28T02:57:35;4.50;;;2.53;;
25091;SDS011;13082;52.374;4.946;2023-02-28T03:00:05;2.60;;;2.40;;
25091;SDS011;13082;52.374;4.946;2023-02-28T03:02:35;3.87;;;2.30;;
25091;SDS011;13082;52.374;4.946;2023-02-28T03:05:04;5.60;;;2.50;;
25091;SDS011;13082;52.374;4.946;2023-02-28T03:07:37;2.80;;;2.40;;
25091;SDS011;13082;52.374;4.946;2023-02-28T03:10:02;4.40;;;2.30;;
25091;SDS011;13082;52.374;4.946;2023-02-28T03:12:51;2.83;;;1.90;;
25091;SDS011;13082;52.374;4.946;2023-02-28T03:15:32;3.77;;;2.07;;
25091;SDS011;13082;52.374;4.946;2023-02-28T03:18:13;4.40;;;2.03;;
25091;SDS011;13082;52.374;4.946;2023-02-28T03:20:58;7.83;;;2.50;;
25091;SDS011;13082;52.374;4.946;2023-02-28T03:23:48;8.30;;;2.20;;
25091;SDS011;13082;52.374;4.946;2023-02-28T03:26:24;3.37;;;1.90;;
25091;SDS011;13082;52.374;4.946;2023-02-28T03:28:54;3.40;;;2.63;;
25091;SDS011;13082;52.374;4.946;2023-02-28T03:31:33;4.77;;;2.40;;
25091;SDS011;13082;52.374;4.946;2023-02-28T03:34:05;6.70;;;2.57;;
25091;SDS011;13082;52.374;4.946;2023-02-28T03:36:41;3.87;;;2.63;;
25091;SDS011;13082;52.374;4.946;2023-02-28T03:39:20;6.80;;;2.70;;
25091;SDS011;13082;52.374;4.946;2023-02-28T03:41:52;2.70;;;1.67;;
25091;SDS011;13082;52.374;4.946;2023-02-28T03:44:24;4.20;;;2.37;;
25091;SDS011;13082;52.374;4.946;2023-02-28T03:46:56;3.47;;;2.00;;
25091;SDS011;13082;52.374;4.946;2023-02-28T03:49:32;2.03;;;1.80;;
25091;SDS011;13082;52.374;4.946;2023-02-28T03:52:08;2.73;;;1.60;;
25091;SDS011;13082;52.374;4.946;2023-02-28T03:54:36;4.60;;;1.57;;
25091;SDS011;13082;52.374;4.946;2023-02-28T03:57:34;3.30;;;1.50;;
25091;SDS011;13082;52.374;4.946;2023-02-28T04:00:06;3.93;;;2.10;;
25091;SDS011;13082;52.374;4.946;2023-02-28T04:02:37;4.63;;;1.40;;
25091;SDS011;13082;52.374;4.946;2023-02-28T04:05:02;2.80;;;1.93;;
25091;SDS011;13082;52.374;4.946;2023-02-28T04:07:29;5.97;;;2.10;;
25091;SDS011;13082;52.374;4.946;2023-02-28T04:09:55;3.43;;;2.13;;
25091;SDS011;13082;52.374;4.946;2023-02-28T04:12:21;3.63;;;1.80;;
25091;SDS011;13082;52.374;4.946;2023-02-28T04:14:48;3.77;;;2.23;;
25091;SDS011;13082;52.374;4.946;2023-02-28T04:17:14;5.03;;;2.30;;
25091;SDS011;13082;52.374;4.946;2023-02-28T04:19:40;4.63;;;2.40;;
25091;SDS011;13082;52.374;4.946;2023-02-28T04:22:07;5.23;;;2.57;;
25091;SDS011;13082;52.374;4.946;2023-02-28T04:24:34;2.90;;;1.77;;
25091;SDS011;13082;52.374;4.946;2023-02-28T04:26:59;3.27;;;2.50;;
25091;SDS011;13082;52.374;4.946;2023-02-28T04:29:29;4.70;;;2.33;;
25091;SDS011;13082;52.374;4.946;2023-02-28T04:31:59;5.47;;;2.23;;
25091;SDS011;13082;52.374;4.946;2023-02-28T04:34:26;4.03;;;2.93;;
25091;SDS011;13082;52.374;4.946;2023-02-28T04:36:54;6.20;;;2.67;;
25091;SDS011;13082;52.374;4.946;2023-02-28T04:39:22;6.77;;;2.93;;
25091;SDS011;13082;52.374;4.946;2023-02-28T04:41:49;3.10;;;2.60;;
25091;SDS011;13082;52.374;4.946;2023-02-28T04:44:15;3.00;;;2.40;;
25091;SDS011;13082;52.374;4.946;2023-02-28T04:46:42;2.93;;;2.30;;
25091;SDS011;13082;52.374;4.946;2023-02-28T04:49:08;4.40;;;2.83;;
25091;SDS011;13082;52.374;4.946;2023-02-28T04:51:36;5.43;;;2.87;;
25091;SDS011;13082;52.374;4.946;2023-02-28T04:54:02;8.80;;;2.20;;
25091;SDS011;13082;52.374;4.946;2023-02-28T04:56:28;4.93;;;2.63;;
25091;SDS011;13082;52.374;4.946;2023-02-28T04:58:53;5.83;;;2.77;;
25091;SDS011;13082;52.374;4.946;2023-02-28T05:01:29;4.33;;;2.83;;
25091;SDS011;13082;52.374;4.946;2023-02-28T05:03:57;3.97;;;2.53;;
25091;SDS011;13082;52.374;4.946;2023-02-28T05:06:25;3.30;;;2.70;;
25091;SDS011;13082;52.374;4.946;2023-02-28T05:08:52;6.70;;;3.23;;
25091;SDS011;13082;52.374;4.946;2023-02-28T05:11:20;6.00;;;3.30;;
25091;SDS011;13082;52.374;4.946;2023-02-28T05:13:47;5.07;;;3.03;;
25091;SDS011;13082;52.374;4.946;2023-02-28T05:16:13;5.70;;;3.17;;
25091;SDS011;13082;52.374;4.946;2023-02-28T05:18:39;5.73;;;3.00;;
25091;SDS011;13082;52.374;4.946;2023-02-28T05:21:05;8.50;;;4.10;;
25091;SDS011;13082;52.374;4.946;2023-02-28T05:23:42;10.10;;;3.30;;
25091;SDS011;13082;52.374;4.946;2023-02-28T05:26:07;5.13;;;3.30;;
25091;SDS011;13082;52.374;4.946;2023-02-28T05:28:33;4.80;;;3.17;;
25091;SDS011;13082;52.374;4.946;2023-02-28T05:30:58;5.53;;;2.73;;
25091;SDS011;13082;52.374;4.946;2023-02-28T05:33:24;7.50;;;3.73;;
25091;SDS011;13082;52.374;4.946;2023-02-28T05:35:50;9.03;;;3.60;;
25091;SDS011;13082;52.374;4.946;2023-02-28T05:38:15;5.80;;;3.43;;
25091;SDS011;13082;52.374;4.946;2023-02-28T05:40:42;4.03;;;3.10;;
25091;SDS011;13082;52.374;4.946;2023-02-28T05:43:09;6.20;;;3.23;;
25091;SDS011;13082;52.374;4.946;2023-02-28T05:45:36;6.77;;;3.97;;
25091;SDS011;13082;52.374;4.946;2023-02-28T05:48:02;8.93;;;3.87;;
25091;SDS011;13082;52.374;4.946;2023-02-28T05:50:28;4.87;;;3.83;;
25091;SDS011;13082;52.374;4.946;2023-02-28T05:52:53;6.33;;;5.10;;
25091;SDS011;13082;52.374;4.946;2023-02-28T05:55:19;8.47;;;4.57;;
25091;SDS011;13082;52.374;4.946;2023-02-28T05:57:45;7.17;;;4.73;;
25091;SDS011;13082;52.374;4.946;2023-02-28T06:00:10;7.57;;;5.20;;
25091;SDS011;13082;52.374;4.946;2023-02-28T06:02:38;8.40;;;5.67;;
25091;SDS011;13082;52.374;4.946;2023-02-28T06:05:05;8.80;;;5.63;;
25091;SDS011;13082;52.374;4.946;2023-02-28T06:07:37;8.53;;;5.00;;
25091;SDS011;13082;52.374;4.946;2023-02-28T06:10:03;9.23;;;4.70;;
25091;SDS011;13082;52.374;4.946;2023-02-28T06:12:29;7.50;;;5.30;;
25091;SDS011;13082;52.374;4.946;2023-02-28T06:14:54;11.50;;;5.60;;
25091;SDS011;13082;52.374;4.946;2023-02-28T06:17:20;9.03;;;5.23;;
25091;SDS011;13082;52.374;4.946;2023-02-28T06:19:45;10.53;;;5.23;;
25091;SDS011;13082;52.374;4.946;2023-02-28T06:22:12;9.30;;;5.80;;
25091;SDS011;13082;52.374;4.946;2023-02-28T06:24:38;6.93;;;5.10;;
25091;SDS011;13082;52.374;4.946;2023-02-28T06:27:04;8.20;;;5.50;;
25091;SDS011;13082;52.374;4.946;2023-02-28T06:29:31;10.67;;;4.97;;
25091;SDS011;13082;52.374;4.946;2023-02-28T06:31:57;9.43;;;5.50;;
25091;SDS011;13082;52.374;4.946;2023-02-28T06:34:23;9.53;;;5.87;;
25091;SDS011;13082;52.374;4.946;2023-02-28T06:36:50;18.33;;;7.07;;
25091;SDS011;13082;52.374;4.946;2023-02-28T06:39:16;8.67;;;6.43;;
25091;SDS011;13082;52.374;4.946;2023-02-28T06:41:42;11.17;;;6.77;;
25091;SDS011;13082;52.374;4.946;2023-02-28T06:44:14;13.77;;;7.00;;
25091;SDS011;13082;52.374;4.946;2023-02-28T06:46:41;9.53;;;5.87;;
25091;SDS011;13082;52.374;4.946;2023-02-28T06:49:08;12.27;;;6.67;;
25091;SDS011;13082;52.374;4.946;2023-02-28T06:51:35;8.83;;;5.80;;
25091;SDS011;13082;52.374;4.946;2023-02-28T06:54:04;6.43;;;4.73;;
25091;SDS011;13082;52.374;4.946;2023-02-28T06:56:30;7.80;;;4.80;;
25091;SDS011;13082;52.374;4.946;2023-02-28T06:58:55;5.37;;;4.43;;
25091;SDS011;13082;52.374;4.946;2023-02-28T07:01:21;9.00;;;4.47;;
25091;SDS011;13082;52.374;4.946;2023-02-28T07:03:48;7.97;;;4.80;;
25091;SDS011;13082;52.374;4.946;2023-02-28T07:06:17;5.03;;;4.03;;
25091;SDS011;13082;52.374;4.946;2023-02-28T07:08:43;7.53;;;4.80;;
25091;SDS011;13082;52.374;4.946;2023-02-28T07:11:09;9.43;;;5.43;;
25091;SDS011;13082;52.374;4.946;2023-02-28T07:13:35;8.47;;;4.43;;
25091;SDS011;13082;52.374;4.946;2023-02-28T07:16:02;5.60;;;4.43;;
25091;SDS011;13082;52.374;4.946;2023-02-28T07:18:30;7.00;;;4.13;;
25091;SDS011;13082;52.374;4.946;2023-02-28T07:20:56;4.27;;;3.80;;
25091;SDS011;13082;52.374;4.946;2023-02-28T07:23:22;5.17;;;4.23;;
25091;SDS011;13082;52.374;4.946;2023-02-28T07:25:49;8.20;;;3.87;;
25091;SDS011;13082;52.374;4.946;2023-02-28T07:28:15;4.33;;;3.33;;
25091;SDS011;13082;52.374;4.946;2023-02-28T07:30:40;3.83;;;3.33;;
25091;SDS011;13082;52.374;4.946;2023-02-28T07:33:06;7.70;;;4.70;;
25091;SDS011;13082;52.374;4.946;2023-02-28T07:35:32;5.90;;;3.93;;
25091;SDS011;13082;52.374;4.946;2023-02-28T07:37:58;7.03;;;5.00;;
25091;SDS011;13082;52.374;4.946;2023-02-28T07:40:24;5.00;;;3.73;;
25091;SDS011;13082;52.374;4.946;2023-02-28T07:42:50;10.00;;;4.77;;
25091;SDS011;13082;52.374;4.946;2023-02-28T07:45:16;12.37;;;8.13;;
25091;SDS011;13082;52.374;4.946;2023-02-28T07:47:42;6.67;;;3.93;;
25091;SDS011;13082;52.374;4.946;2023-02-28T07:50:09;5.37;;;4.27;;
25091;SDS011;13082;52.374;4.946;2023-02-28T07:52:36;5.13;;;4.00;;
25091;SDS011;13082;52.374;4.946;2023-02-28T07:55:03;6.30;;;4.37;;
25091;SDS011;13082;52.374;4.946;2023-02-28T07:57:30;6.67;;;4.20;;
25091;SDS011;13082;52.374;4.946;2023-02-28T07:59:56;5.07;;;4.10;;
25091;SDS011;13082;52.374;4.946;2023-02-28T08:02:21;7.27;;;4.90;;
25091;SDS011;13082;52.374;4.946;2023-02-28T08:04:47;8.10;;;4.27;;
25091;SDS011;13082;52.374;4.946;2023-02-28T08:07:13;6.00;;;4.50;;
25091;SDS011;13082;52.374;4.946;2023-02-28T08:09:40;4.70;;;3.70;;
25091;SDS011;13082;52.374;4.946;2023-02-28T08:12:06;4.33;;;3.93;;
25091;SDS011;13082;52.374;4.946;2023-02-28T08:14:32;4.63;;;3.90;;
25091;SDS011;13082;52.374;4.946;2023-02-28T08:16:58;5.07;;;3.93;;
25091;SDS011;13082;52.374;4.946;2023-02-28T08:19:24;4.00;;;3.70;;
25091;SDS011;13082;52.374;4.946;2023-02-28T08:21:49;4.87;;;3.60;;
25091;SDS011;13082;52.374;4.946;2023-02-28T08:24:15;3.77;;;3.37;;
25091;SDS011;13082;52.374;4.946;2023-02-28T08:26:41;5.77;;;3.97;;
25091;SDS011;13082;52.374;4.946;2023-02-28T08:29:06;6.07;;;3.93;;
25091;SDS011;13082;52.374;4.946;2023-02-28T08:31:32;5.20;;;4.67;;
25091;SDS011;13082;52.374;4.946;2023-02-28T08:34:00;4.03;;;3.63;;
25091;SDS011;13082;52.374;4.946;2023-02-28T08:36:36;6.47;;;3.60;;
25091;SDS011;13082;52.374;4.946;2023-02-28T08:39:02;7.13;;;4.17;;
25091;SDS011;13082;52.374;4.946;2023-02-28T08:41:27;6.37;;;4.60;;
25091;SDS011;13082;52.374;4.946;2023-02-28T08:43:53;4.37;;;3.97;;
25091;SDS011;13082;52.374;4.946;2023-02-28T08:46:19;5.57;;;3.67;;
25091;SDS011;13082;52.374;4.946;2023-02-28T08:48:45;3.80;;;3.37;;
25091;SDS011;13082;52.374;4.946;2023-02-28T08:51:12;4.93;;;3.80;;
25091;SDS011;13082;52.374;4.946;2023-02-28T08:53:41;5.70;;;4.03;;
25091;SDS011;13082;52.374;4.946;2023-02-28T08:56:08;6.20;;;4.17;;
25091;SDS011;13082;52.374;4.946;2023-02-28T08:58:35;8.30;;;4.47;;
25091;SDS011;13082;52.374;4.946;2023-02-28T09:01:14;4.93;;;3.73;;
25091;SDS011;13082;52.374;4.946;2023-02-28T09:03:42;4.60;;;3.53;;
25091;SDS011;13082;52.374;4.946;2023-02-28T09:06:08;5.37;;;3.93;;
25091;SDS011;13082;52.374;4.946;2023-02-28T09:08:35;5.67;;;3.67;;
25091;SDS011;13082;52.374;4.946;2023-02-28T09:11:01;7.63;;;4.13;;
25091;SDS011;13082;52.374;4.946;2023-02-28T09:13:28;6.43;;;4.03;;
25091;SDS011;13082;52.374;4.946;2023-02-28T09:15:56;5.30;;;4.73;;
25091;SDS011;13082;52.374;4.946;2023-02-28T09:18:23;4.83;;;3.80;;
25091;SDS011;13082;52.374;4.946;2023-02-28T09:20:48;8.40;;;5.33;;
25091;SDS011;13082;52.374;4.946;2023-02-28T09:23:15;6.63;;;4.60;;
25091;SDS011;13082;52.374;4.946;2023-02-28T09:25:51;4.17;;;3.77;;
25091;SDS011;13082;52.374;4.946;2023-02-28T09:28:18;10.63;;;4.73;;
25091;SDS011;13082;52.374;4.946;2023-02-28T09:30:45;4.90;;;3.70;;
25091;SDS011;13082;52.374;4.946;2023-02-28T09:33:16;7.87;;;4.57;;
25091;SDS011;13082;52.374;4.946;2023-02-28T09:35:43;5.63;;;3.87;;
25091;SDS011;13082;52.374;4.946;2023-02-28T09:38:09;4.43;;;3.97;;
25091;SDS011;13082;52.374;4.946;2023-02-28T09:40:51;11.50;;;4.43;;
25091;SDS011;13082;52.374;4.946;2023-02-28T09:43:21;6.37;;;3.93;;
25091;SDS011;13082;52.374;4.946;2023-02-28T09:46:06;7.17;;;4.57;;
25091;SDS011;13082;52.374;4.946;2023-02-28T09:48:52;11.83;;;3.80;;
25091;SDS011;13082;52.374;4.946;2023-02-28T09:53:55;4.87;;;3.80;;
25091;SDS011;13082;52.374;4.946;2023-02-28T09:56:24;5.13;;;3.53;;
25091;SDS011;13082;52.374;4.946;2023-02-28T10:07:37;5.90;;;4.13;;
25091;SDS011;13082;52.374;4.946;2023-02-28T10:10:27;4.50;;;3.27;;
25091;SDS011;13082;52.374;4.946;2023-02-28T10:13:04;5.93;;;3.83;;
25091;SDS011;13082;52.374;4.946;2023-02-28T10:15:53;4.30;;;3.37;;
25091;SDS011;13082;52.374;4.946;2023-02-28T10:19:06;3.93;;;3.30;;
25091;SDS011;13082;52.374;4.946;2023-02-28T10:21:17;6.60;;;3.20;;
25091;SDS011;13082;52.374;4.946;2023-02-28T10:24:00;6.77;;;3.80;;
25091;SDS011;13082;52.374;4.946;2023-02-28T10:26:29;4.80;;;3.10;;
25091;SDS011;13082;52.374;4.946;2023-02-28T10:28:57;3.80;;;3.13;;
25091;SDS011;13082;52.374;4.946;2023-02-28T10:31:23;6.93;;;3.60;;
25091;SDS011;13082;52.374;4.946;2023-02-28T10:33:49;3.27;;;2.93;;
25091;SDS011;13082;52.374;4.946;2023-02-28T10:36:16;3.63;;;2.70;;
25091;SDS011;13082;52.374;4.946;2023-02-28T10:38:44;3.13;;;2.50;;
25091;SDS011;13082;52.374;4.946;2023-02-28T10:41:15;2.80;;;2.47;;
25091;SDS011;13082;52.374;4.946;2023-02-28T10:43:51;4.60;;;2.90;;
25091;SDS011;13082;52.374;4.946;2023-02-28T10:46:18;2.73;;;2.53;;
25091;SDS011;13082;52.374;4.946;2023-02-28T10:49:06;2.70;;;2.40;;
25091;SDS011;13082;52.374;4.946;2023-02-28T10:51:40;3.60;;;2.67;;
25091;SDS011;13082;52.374;4.946;2023-02-28T10:54:14;2.20;;;2.10;;
25091;SDS011;13082;52.374;4.946;2023-02-28T10:56:45;2.80;;;2.27;;
25091;SDS011;13082;52.374;4.946;2023-02-28T10:59:30;2.77;;;2.10;;
25091;SDS011;13082;52.374;4.946;2023-02-28T11:01:56;3.37;;;2.17;;
25091;SDS011;13082;52.374;4.946;2023-02-28T11:09:49;2.30;;;2.07;;
25091;SDS011;13082;52.374;4.946;2023-02-28T11:12:19;3.53;;;2.37;;
25091;SDS011;13082;52.374;4.946;2023-02-28T11:14:53;2.40;;;2.20;;
25091;SDS011;13082;52.374;4.946;2023-02-28T11:17:26;3.07;;;2.47;;
25091;SDS011;13082;52.374;4.946;2023-02-28T11:20:04;3.33;;;2.20;;
25091;SDS011;13082;52.374;4.946;2023-02-28T11:22:32;2.03;;;1.90;;
25091;SDS011;13082;52.374;4.946;2023-02-28T11:28:02;2.47;;;1.80;;
25091;SDS011;13082;52.374;4.946;2023-02-28T11:33:18;2.40;;;2.20;;
25091;SDS011;13082;52.374;4.946;2023-02-28T11:35:48;2.77;;;1.80;;
25091;SDS011;13082;52.374;4.946;2023-02-28T11:38:15;1.83;;;1.73;;
25091;SDS011;13082;52.374;4.946;2023-02-28T11:41:05;4.97;;;1.97;;
25091;SDS011;13082;52.374;4.946;2023-02-28T11:51:47;2.40;;;2.20;;
25091;SDS011;13082;52.374;4.946;2023-02-28T11:57:08;2.87;;;2.20;;
25091;SDS011;13082;52.374;4.946;2023-02-28T11:59:52;3.17;;;2.37;;
25091;SDS011;13082;52.374;4.946;2023-02-28T12:13:28;3.00;;;2.10;;
25091;SDS011;13082;52.374;4.946;2023-02-28T12:24:50;2.90;;;2.33;;
25091;SDS011;13082;52.374;4.946;2023-02-28T12:27:22;2.13;;;1.93;;
25091;SDS011;13082;52.374;4.946;2023-02-28T12:29:54;2.97;;;2.30;;
25091;SDS011;13082;52.374;4.946;2023-02-28T12:32:32;2.53;;;2.00;;
25091;SDS011;13082;52.374;4.946;2023-02-28T12:35:24;2.47;;;2.17;;
25091;SDS011;13082;52.374;4.946;2023-02-28T12:38:04;2.73;;;1.80;;
25091;SDS011;13082;52.374;4.946;2023-02-28T12:40:47;2.93;;;1.90;;
25091;SDS011;13082;52.374;4.946;2023-02-28T12:43:15;3.23;;;2.30;;
25091;SDS011;13082;52.374;4.946;2023-02-28T12:45:45;2.37;;;2.17;;
25091;SDS011;13082;52.374;4.946;2023-02-28T12:48:15;2.33;;;1.97;;
25091;SDS011;13082;52.374;4.946;2023-02-28T12:50:47;3.33;;;2.10;;
25091;SDS011;13082;52.374;4.946;2023-02-28T13:07:23;2.13;;;2.00;;
25091;SDS011;13082;52.374;4.946;2023-02-28T13:09:56;2.20;;;2.00;;
25091;SDS011;13082;52.374;4.946;2023-02-28T13:12:24;2.17;;;2.07;;
25091;SDS011;13082;52.374;4.946;2023-02-28T13:14:51;2.33;;;1.90;;
25091;SDS011;13082;52.374;4.946;2023-02-28T13:17:41;2.07;;;1.93;;
25091;SDS011;13082;52.374;4.946;2023-02-28T13:20:20;3.03;;;2.13;;
25091;SDS011;13082;52.374;4.946;2023-02-28T13:22:51;2.07;;;1.93;;
25091;SDS011;13082;52.374;4.946;2023-02-28T13:27:48;2.90;;;2.43;;
25091;SDS011;13082;52.374;4.946;2023-02-28T13:33:22;3.30;;;3.00;;
25091;SDS011;13082;52.374;4.946;2023-02-28T13:38:41;7.17;;;2.63;;
25091;SDS011;13082;52.374;4.946;2023-02-28T13:46:24;2.50;;;2.30;;
25091;SDS011;13082;52.374;4.946;2023-02-28T13:48:49;2.87;;;2.33;;
25091;SDS011;13082;52.374;4.946;2023-02-28T13:54:17;2.40;;;2.17;;
25091;SDS011;13082;52.374;4.946;2023-02-28T13:59:55;3.87;;;2.73;;
25091;SDS011;13082;52.374;4.946;2023-02-28T14:07:42;3.07;;;2.87;;
25091;SDS011;13082;52.374;4.946;2023-02-28T14:10:20;3.23;;;2.40;;
25091;SDS011;13082;52.374;4.946;2023-02-28T14:15:39;2.87;;;2.50;;
25091;SDS011;13082;52.374;4.946;2023-02-28T14:18:19;2.73;;;2.53;;
25091;SDS011;13082;52.374;4.946;2023-02-28T14:20:54;2.13;;;2.03;;
25091;SDS011;13082;52.374;4.946;2023-02-28T14:31:04;2.20;;;2.00;;
25091;SDS011;13082;52.374;4.946;2023-02-28T14:36:22;3.60;;;2.20;;
25091;SDS011;13082;52.374;4.946;2023-02-28T14:38:53;2.93;;;2.73;;
25091;SDS011;13082;52.374;4.946;2023-02-28T14:41:23;3.77;;;2.70;;
25091;SDS011;13082;52.374;4.946;2023-02-28T14:44:00;6.90;;;2.40;;
25091;SDS011;13082;52.374;4.946;2023-02-28T14:46:35;2.57;;;2.37;;
25091;SDS011;13082;52.374;4.946;2023-02-28T14:49:11;5.13;;;2.20;;
25091;SDS011;13082;52.374;4.946;2023-02-28T14:52:00;2.70;;;1.90;;
25091;SDS011;13082;52.374;4.946;2023-02-28T14:54:28;2.60;;;2.33;;
25091;SDS011;13082;52.374;4.946;2023-02-28T14:56:54;19.83;;;5.83;;
25091;SDS011;13082;52.374;4.946;2023-02-28T14:59:24;2.90;;;2.60;;
25091;SDS011;13082;52.374;4.946;2023-02-28T15:01:52;2.43;;;2.23;;
25091;SDS011;13082;52.374;4.946;2023-02-28T15:04:38;2.70;;;2.50;;
25091;SDS011;13082;52.374;4.946;2023-02-28T15:07:07;2.33;;;2.23;;
25091;SDS011;13082;52.374;4.946;2023-02-28T15:09:38;2.40;;;2.20;;
25091;SDS011;13082;52.374;4.946;2023-02-28T15:12:03;2.40;;;2.20;;
25091;SDS011;13082;52.374;4.946;2023-02-28T15:14:29;2.67;;;2.47;;
25091;SDS011;13082;52.374;4.946;2023-02-28T15:16:57;3.00;;;2.60;;
25091;SDS011;13082;52.374;4.946;2023-02-28T15:19:30;2.50;;;2.30;;
25091;SDS011;13082;52.374;4.946;2023-02-28T15:22:06;3.13;;;2.27;;
25091;SDS011;13082;52.374;4.946;2023-02-28T15:24:41;2.50;;;2.30;;
25091;SDS011;13082;52.374;4.946;2023-02-28T15:27:18;2.47;;;2.27;;
25091;SDS011;13082;52.374;4.946;2023-02-28T15:29:48;3.17;;;2.43;;
25091;SDS011;13082;52.374;4.946;2023-02-28T15:32:26;2.77;;;2.53;;
25091;SDS011;13082;52.374;4.946;2023-02-28T15:34:54;3.60;;;2.30;;
25091;SDS011;13082;52.374;4.946;2023-02-28T15:37:27;2.40;;;2.20;;
25091;SDS011;13082;52.374;4.946;2023-02-28T15:45:49;4.13;;;2.10;;
25091;SDS011;13082;52.374;4.946;2023-02-28T15:48:23;2.50;;;2.30;;
25091;SDS011;13082;52.374;4.946;2023-02-28T15:51:01;3.10;;;2.53;;
25091;SDS011;13082;52.374;4.946;2023-02-28T15:53:41;3.10;;;2.20;;
25091;SDS011;13082;52.374;4.946;2023-02-28T15:56:23;2.93;;;1.97;;
25091;SDS011;13082;52.374;4.946;2023-02-28T15:58:55;3.43;;;2.20;;
25091;SDS011;13082;52.374;4.946;2023-02-28T16:01:29;2.30;;;2.10;;
25091;SDS011;13082;52.374;4.946;2023-02-28T16:03:59;4.87;;;2.37;;
25091;SDS011;13082;52.374;4.946;2023-02-28T16:09:00;2.53;;;1.93;;
25091;SDS011;13082;52.374;4.946;2023-02-28T16:11:26;2.50;;;2.00;;
25091;SDS011;13082;52.374;4.946;2023-02-28T16:13:52;2.40;;;2.20;;
25091;SDS011;13082;52.374;4.946;2023-02-28T16:16:20;3.43;;;2.17;;
25091;SDS011;13082;52.374;4.946;2023-02-28T16:18:47;2.23;;;2.00;;
25091;SDS011;13082;52.374;4.946;2023-02-28T16:21:13;2.63;;;2.30;;
25091;SDS011;13082;52.374;4.946;2023-02-28T16:23:39;1.90;;;1.80;;
25091;SDS011;13082;52.374;4.946;2023-02-28T16:26:05;3.87;;;2.33;;
25091;SDS011;13082;52.374;4.946;2023-02-28T16:28:32;2.17;;;2.03;;
25091;SDS011;13082;52.374;4.946;2023-02-28T16:31:00;4.23;;;2.17;;
25091;SDS011;13082;52.374;4.946;2023-02-28T16:33:27;3.67;;;2.00;;
25091;SDS011;13082;52.374;4.946;2023-02-28T16:35:53;3.23;;;2.27;;
25091;SDS011;13082;52.374;4.946;2023-02-28T16:38:19;3.03;;;2.13;;
25091;SDS011;13082;52.374;4.946;2023-02-28T16:40:46;4.93;;;2.50;;
25091;SDS011;13082;52.374;4.946;2023-02-28T16:43:18;3.07;;;2.27;;
25091;SDS011;13082;52.374;4.946;2023-02-28T16:45:47;3.10;;;2.67;;
25091;SDS011;13082;52.374;4.946;2023-02-28T16:48:14;2.50;;;2.30;;
25091;SDS011;13082;52.374;4.946;2023-02-28T16:50:41;2.80;;;2.13;;
25091;SDS011;13082;52.374;4.946;2023-02-28T16:53:09;2.87;;;2.57;;
25091;SDS011;13082;52.374;4.946;2023-02-28T16:55:34;3.77;;;2.50;;
25091;SDS011;13082;52.374;4.946;2023-02-28T16:58:01;2.27;;;2.07;;
25091;SDS011;13082;52.374;4.946;2023-02-28T17:00:28;4.93;;;2.80;;
25091;SDS011;13082;52.374;4.946;2023-02-28T17:02:55;2.57;;;2.37;;
25091;SDS011;13082;52.374;4.946;2023-02-28T17:05:22;3.53;;;3.23;;
25091;SDS011;13082;52.374;4.946;2023-02-28T17:07:49;4.10;;;3.03;;
25091;SDS011;13082;52.374;4.946;2023-02-28T17:10:16;3.07;;;2.77;;
25091;SDS011;13082;52.374;4.946;2023-02-28T17:12:46;3.53;;;2.83;;
25091;SDS011;13082;52.374;4.946;2023-02-28T17:15:13;4.43;;;3.10;;
25091;SDS011;13082;52.374;4.946;2023-02-28T17:17:40;5.50;;;3.10;;
25091;SDS011;13082;52.374;4.946;2023-02-28T17:20:09;4.70;;;2.80;;
25091;SDS011;13082;52.374;4.946;2023-02-28T17:22:41;4.50;;;2.63;;